Time;durP1;ratioP1;P1;durP2;ratioP2;P2;SDS_P1;SDS_P2;PMS_P1;PMS_P2;Temp;Humidity;BMP_temperature;BMP_pressure;BME280_temperature;BME280_humidity;BME280_pressure;Samples;Min_cycle;Max_cycle;Signal;HPM_P1;HPM_P2
2023/10/30 00:00:52;;;;;;;0.65;0.30;;;;;;;12.20;75.94;99717.63;15733709;28;20427;-46
2023/10/30 00:08:30;;;;;;;0.00;0.00;;;;;;;12.62;73.54;99727.13;15708461;28;20585;-47
2023/10/30 00:16:05;;;;;;;0.10;0.10;;;;;;;12.38;74.30;99721.94;15729760;28;20156;-48
2023/10/30 00:23:42;;;;;;;0.00;0.00;;;;;;;12.52;73.50;99717.84;15700644;28;20182;-50
2023/10/30 00:31:15;;;;;;;0.00;0.00;;;;;;;12.36;73.26;99737.53;15728030;28;20342;-50
2023/10/30 00:38:50;;;;;;;0.00;0.00;;;;;;;12.60;72.22;99743.53;15708652;28;20405;-49
2023/10/30 00:46:23;;;;;;;0.05;0.05;;;;;;;12.45;72.71;99759.44;15703121;28;20049;-51
2023/10/30 00:53:58;;;;;;;0.00;0.00;;;;;;;12.71;71.64;99761.44;15728815;28;20071;-53
2023/10/30 01:01:31;;;;;;;0.00;0.00;;;;;;;12.26;73.41;99775.03;15702813;28;20405;-51
2023/10/30 01:09:06;;;;;;;0.00;0.00;;;;;;;12.30;73.57;99773.47;15706398;28;20475;-51
2023/10/30 01:16:39;;;;;;;0.00;0.00;;;;;;;12.34;73.00;99774.63;15694781;28;20078;-48
2023/10/30 01:24:15;;;;;;;0.10;0.10;;;;;;;12.66;71.81;99790.19;15736488;28;20047;-50
2023/10/30 01:31:49;;;;;;;0.00;0.00;;;;;;;12.62;71.53;99789.03;15742429;28;20439;-54
2023/10/30 01:39:23;;;;;;;0.00;0.00;;;;;;;12.52;72.19;99806.66;15705938;28;20088;-48
2023/10/30 01:46:56;;;;;;;0.00;0.00;;;;;;;12.17;73.50;99814.16;15736433;28;21215;-49
2023/10/30 01:54:35;;;;;;;0.00;0.00;;;;;;;12.61;72.21;99836.69;15735541;28;20051;-52
2023/10/30 02:02:12;;;;;;;0.00;0.00;;;;;;;12.32;72.97;99835.16;15742069;28;20357;-48
2023/10/30 02:09:47;;;;;;;0.00;0.00;;;;;;;12.51;72.25;99831.16;15740872;28;20473;-49
2023/10/30 02:17:20;;;;;;;0.00;0.00;;;;;;;12.22;73.21;99835.78;15716334;28;20064;-51
2023/10/30 02:24:55;;;;;;;0.00;0.00;;;;;;;12.34;72.60;99831.13;15705721;28;20459;-48
2023/10/30 02:32:30;;;;;;;0.10;0.10;;;;;;;12.63;72.12;99825.66;15708212;28;20071;-48
2023/10/30 02:40:06;;;;;;;0.00;0.00;;;;;;;12.67;71.81;99834.88;15676982;28;20056;-49
2023/10/30 02:47:41;;;;;;;0.00;0.00;;;;;;;12.60;71.45;99821.59;15738256;28;20048;-50
2023/10/30 02:55:14;;;;;;;0.00;0.00;;;;;;;12.16;73.24;99842.94;15723017;28;20041;-51
2023/10/30 03:02:49;;;;;;;0.00;0.00;;;;;;;12.40;72.18;99851.72;15722113;28;20449;-50
2023/10/30 03:10:24;;;;;;;0.03;0.03;;;;;;;12.56;71.72;99846.56;15737496;28;20264;-49
2023/10/30 03:18:00;;;;;;;0.00;0.00;;;;;;;12.62;71.19;99838.31;15726223;28;20569;-52
2023/10/30 03:25:34;;;;;;;1.77;1.27;;;;;;;12.61;71.28;99850.16;15696091;28;20048;-53
2023/10/30 03:33:10;;;;;;;0.00;0.00;;;;;;;12.53;71.42;99850.56;15686503;28;20537;-50
2023/10/30 03:40:43;;;;;;;0.00;0.00;;;;;;;12.50;71.83;99834.91;15716879;28;20076;-52
2023/10/30 03:48:20;;;;;;;0.00;0.00;;;;;;;12.51;71.88;99847.31;15690884;28;20033;-52
2023/10/30 03:55:55;;;;;;;0.00;0.00;;;;;;;12.43;71.90;99834.25;15717583;28;20076;-48
2023/10/30 04:03:32;;;;;;;0.00;0.00;;;;;;;12.56;71.64;99838.50;15690988;28;20041;-49
2023/10/30 04:11:10;;;;;;;0.00;0.00;;;;;;;12.81;70.56;99833.47;15733939;28;20094;-52
2023/10/30 04:18:47;;;;;;;0.00;0.00;;;;;;;12.76;70.96;99860.34;15712329;28;20052;-52
2023/10/30 04:26:21;;;;;;;0.00;0.00;;;;;;;12.50;71.79;99856.44;15716336;28;20044;-50
2023/10/30 04:33:55;;;;;;;0.00;0.00;;;;;;;12.60;71.37;99855.78;15724946;28;20048;-51
2023/10/30 04:41:28;;;;;;;0.00;0.00;;;;;;;12.64;71.66;99840.78;15704044;28;20051;-52
2023/10/30 04:49:03;;;;;;;;;;;;;;;12.67;71.59;99859.13;15706917;28;20043;-52
2023/10/30 04:56:36;;;;;;;0.00;0.00;;;;;;;12.56;72.21;99866.22;15722757;28;19940;-52
2023/10/30 05:04:11;;;;;;;0.00;0.00;;;;;;;12.52;72.29;99876.66;15737351;28;20075;-52
2023/10/30 05:11:44;;;;;;;0.00;0.00;;;;;;;12.60;72.12;99871.94;15729597;28;20114;-49
2023/10/30 05:19:21;;;;;;;0.00;0.00;;;;;;;12.28;73.24;99887.81;15722150;28;20466;-51
2023/10/30 05:26:55;;;;;;;0.00;0.00;;;;;;;12.36;72.40;99876.66;15718502;28;20064;-51
2023/10/30 05:34:31;;;;;;;0.00;0.00;;;;;;;12.55;72.12;99894.22;15728589;28;20046;-51
2023/10/30 05:42:06;;;;;;;0.00;0.00;;;;;;;12.31;73.24;99892.69;15736552;28;20057;-52
2023/10/30 05:49:41;;;;;;;0.00;0.00;;;;;;;12.34;73.56;99913.75;15736460;28;20044;-51
2023/10/30 05:57:17;;;;;;;0.65;0.30;;;;;;;12.31;73.73;99901.59;15719831;28;20094;-53
2023/10/30 06:04:51;;;;;;;0.28;0.08;;;;;;;12.18;74.04;99905.41;15739891;28;20044;-52
2023/10/30 06:12:26;;;;;;;0.00;0.00;;;;;;;12.49;72.95;99917.50;15701257;28;20069;-52
2023/10/30 06:20:00;;;;;;;0.00;0.00;;;;;;;12.09;74.65;99922.97;15714620;28;20052;-52
2023/10/30 06:27:35;;;;;;;0.00;0.00;;;;;;;12.37;74.01;99930.22;15737105;28;20053;-53
2023/10/30 06:35:10;;;;;;;0.00;0.00;;;;;;;12.02;74.58;99938.44;15710935;28;20044;-54
2023/10/30 06:42:44;;;;;;;0.00;0.00;;;;;;;12.34;74.35;99929.88;15722436;28;20066;-52
2023/10/30 06:50:19;;;;;;;0.00;0.00;;;;;;;12.27;73.82;99911.22;15705432;28;20051;-49
2023/10/30 06:57:52;;;;;;;0.10;0.10;;;;;;;12.40;73.64;99939.69;15728196;28;20048;-51
2023/10/30 07:05:27;;;;;;;0.00;0.00;;;;;;;12.14;74.37;99923.06;15694875;28;20041;-53
2023/10/30 07:13:02;;;;;;;0.00;0.00;;;;;;;12.57;73.36;99948.59;15733327;28;20052;-54
2023/10/30 07:20:37;;;;;;;0.00;0.00;;;;;;;13.18;71.34;99957.69;15724146;28;20036;-55
2023/10/30 07:28:11;;;;;;;0.00;0.00;;;;;;;12.91;72.46;99971.00;15692251;28;20044;-51
2023/10/30 07:35:46;;;;;;;0.20;0.10;;;;;;;13.40;70.54;99973.94;15725163;28;20049;-52
2023/10/30 07:43:22;;;;;;;0.00;0.00;;;;;;;13.64;69.53;99990.72;15717531;28;20131;-51
2023/10/30 07:51:01;;;;;;;0.00;0.00;;;;;;;13.66;69.31;99991.31;15709528;28;20049;-51
2023/10/30 07:58:34;;;;;;;0.00;0.00;;;;;;;13.64;69.78;99961.06;15714856;28;20490;-49
2023/10/30 08:06:10;;;;;;;0.00;0.00;;;;;;;13.80;68.65;99967.47;15702457;28;20133;-52
2023/10/30 08:13:43;;;;;;;0.00;0.00;;;;;;;13.67;68.85;100003.72;15684958;28;20622;-51
2023/10/30 08:21:19;;;;;;;0.00;0.00;;;;;;;14.19;68.63;99989.00;15689820;28;20044;-52
2023/10/30 08:28:52;;;;;;;0.00;0.00;;;;;;;14.29;67.84;99994.50;15685706;28;20052;-52
2023/10/30 08:36:26;;;;;;;0.00;0.00;;;;;;;14.14;68.20;99987.06;15722362;28;20093;-52
2023/10/30 08:44:00;;;;;;;0.28;0.28;;;;;;;13.85;69.62;99989.13;15689153;28;20052;-51
2023/10/30 08:51:41;;;;;;;0.00;0.00;;;;;;;14.48;67.90;99997.72;15689542;28;20049;-51
2023/10/30 08:59:14;;;;;;;0.00;0.00;;;;;;;14.12;68.86;99986.47;15715990;28;20040;-51
2023/10/30 09:06:49;;;;;;;0.10;0.10;;;;;;;14.54;67.69;99973.19;15714682;28;20063;-50
2023/10/30 09:14:23;;;;;;;0.00;0.00;;;;;;;14.48;67.69;99958.03;15718293;28;20398;-50
2023/10/30 09:21:58;;;;;;;0.00;0.00;;;;;;;15.06;66.65;99950.13;15700892;28;20117;-51
2023/10/30 09:29:32;;;;;;;0.20;0.13;;;;;;;15.09;67.17;99970.44;15717004;28;20460;-51
2023/10/30 09:37:07;;;;;;;0.00;0.00;;;;;;;14.95;67.58;99994.38;15707946;28;20131;-51
2023/10/30 09:44:41;;;;;;;0.00;0.00;;;;;;;14.92;67.54;99986.78;15692109;28;20037;-50
2023/10/30 09:52:16;;;;;;;0.10;0.10;;;;;;;15.52;64.86;99989.13;15711821;28;20070;-50
2023/10/30 09:59:54;;;;;;;0.55;0.55;;;;;;;15.76;64.77;99996.84;15722072;28;20498;-53
2023/10/30 10:07:29;;;;;;;0.00;0.00;;;;;;;15.28;64.77;99987.88;15719801;28;20053;-52
2023/10/30 10:15:06;;;;;;;0.00;0.00;;;;;;;14.94;65.59;100022.47;15718188;28;20055;-50
2023/10/30 10:22:43;;;;;;;0.00;0.00;;;;;;;15.11;65.07;100020.47;15706481;28;20416;-51
2023/10/30 10:30:18;;;;;;;0.00;0.00;;;;;;;15.19;65.91;100017.28;15721320;28;20041;-51
2023/10/30 10:38:08;;;;;;;0.30;0.10;;;;;;;14.50;68.74;100019.88;15710484;28;20228;-52
2023/10/30 10:45:42;;;;;;;0.00;0.00;;;;;;;14.79;66.85;100013.16;15712275;28;20090;-51
2023/10/30 10:53:20;;;;;;;0.20;0.17;;;;;;;14.87;67.60;100016.44;15699087;28;20098;-51
2023/10/30 11:00:56;;;;;;;0.00;0.00;;;;;;;14.65;68.50;100017.34;15717993;28;20504;-50
2023/10/30 11:08:45;;;;;;;0.00;0.00;;;;;;;16.13;63.11;100010.28;15694792;28;20152;-51
2023/10/30 11:16:25;;;;;;;4.30;0.47;;;;;;;17.69;59.09;99990.94;15713879;28;20037;-53
2023/10/30 11:24:00;;;;;;;0.08;0.03;;;;;;;18.32;56.05;99972.22;15716891;28;20057;-51
2023/10/30 11:31:51;;;;;;;0.00;0.00;;;;;;;15.99;63.05;99960.41;15712733;28;20110;-50
2023/10/30 11:39:26;;;;;;;0.03;0.00;;;;;;;16.03;62.46;99978.56;15709965;28;20044;-49
2023/10/30 11:47:00;;;;;;;0.00;0.00;;;;;;;15.64;64.64;99988.16;15708532;28;20469;-51
2023/10/30 11:54:36;;;;;;;0.47;0.43;;;;;;;16.68;60.64;99978.22;15706410;28;20506;-47
2023/10/30 12:02:10;;;;;;;0.00;0.00;;;;;;;16.16;62.26;99965.63;15711445;28;20056;-47
2023/10/30 12:09:45;;;;;;;0.00;0.00;;;;;;;15.93;62.92;99964.19;15721157;28;20140;-51
2023/10/30 12:17:18;;;;;;;0.00;0.00;;;;;;;16.55;61.64;99966.84;15721934;28;20049;-48
2023/10/30 12:24:53;;;;;;;0.00;0.00;;;;;;;16.45;62.13;99955.94;15723688;28;20056;-51
2023/10/30 12:32:30;;;;;;;0.95;0.10;;;;;;;16.78;61.56;99970.94;15724029;28;20037;-51
2023/10/30 12:40:07;;;;;;;0.00;0.00;;;;;;;17.99;58.76;99957.44;15730773;28;20132;-54
2023/10/30 12:47:41;;;;;;;0.20;0.20;;;;;;;18.20;56.39;99955.44;15705758;28;20057;-52
2023/10/30 12:55:16;;;;;;;0.00;0.00;;;;;;;17.11;59.21;99943.53;15711354;28;20045;-49
2023/10/30 13:02:50;;;;;;;0.00;0.00;;;;;;;16.40;61.32;99947.00;15723581;28;20215;-51
2023/10/30 13:10:24;;;;;;;0.00;0.00;;;;;;;16.87;59.31;99925.13;15686352;28;20409;-51
2023/10/30 13:17:57;;;;;;;0.00;0.00;;;;;;;16.78;59.24;99926.75;15706208;28;20100;-48
2023/10/30 13:25:32;;;;;;;0.00;0.00;;;;;;;16.39;60.58;99926.44;15710901;28;20099;-51
2023/10/30 13:33:05;;;;;;;2.00;0.30;;;;;;;16.66;59.58;99907.22;15732817;28;20036;-48
2023/10/30 13:40:40;;;;;;;0.00;0.00;;;;;;;16.59;60.32;99896.63;15745093;28;20063;-51
2023/10/30 13:48:14;;;;;;;0.35;0.35;;;;;;;16.61;60.82;99890.97;15743869;28;20052;-49
2023/10/30 13:55:49;;;;;;;0.00;0.00;;;;;;;16.31;60.37;99863.56;15721222;28;20127;-54
2023/10/30 14:03:22;;;;;;;0.00;0.00;;;;;;;15.52;62.75;99853.06;15732170;28;20056;-46
2023/10/30 14:10:58;;;;;;;0.00;0.00;;;;;;;15.62;63.31;99865.81;15714460;28;20087;-53
2023/10/30 14:18:31;;;;;;;0.00;0.00;;;;;;;15.68;62.34;99851.28;15694460;28;20072;-52
2023/10/30 14:26:05;;;;;;;2.90;0.30;;;;;;;15.84;61.87;99844.81;15723374;28;20048;-47
2023/10/30 14:33:39;;;;;;;0.00;0.00;;;;;;;15.63;62.52;99829.59;15724712;28;20135;-50
2023/10/30 14:41:13;;;;;;;0.00;0.00;;;;;;;15.89;61.84;99812.34;15716955;28;20112;-51
2023/10/30 14:48:46;;;;;;;0.00;0.00;;;;;;;15.84;62.03;99809.63;15718255;28;20051;-49
2023/10/30 14:56:21;;;;;;;;;;;;;;;15.67;63.26;99822.59;15725770;28;20444;-51
2023/10/30 15:03:57;;;;;;;0.00;0.00;;;;;;;15.30;64.29;99805.41;15721357;28;19924;-49
2023/10/30 15:11:32;;;;;;;0.00;0.00;;;;;;;15.40;64.61;99801.91;15721163;28;20387;-51
2023/10/30 15:19:05;;;;;;;0.00;0.00;;;;;;;15.33;64.46;99790.53;15728768;28;20128;-52
2023/10/30 15:26:40;;;;;;;0.00;0.00;;;;;;;15.35;65.25;99796.50;15730291;28;20053;-51
2023/10/30 15:34:13;;;;;;;0.00;0.00;;;;;;;15.13;65.99;99793.16;15738217;28;20044;-53
2023/10/30 15:41:47;;;;;;;;;;;;;;;14.89;67.13;99801.69;15726279;28;20068;-51
2023/10/30 15:49:21;;;;;;;0.00;0.00;;;;;;;15.08;66.48;99804.75;15732149;28;19924;-49
2023/10/30 15:56:56;;;;;;;0.20;0.20;;;;;;;14.80;67.68;99806.75;15718637;28;20102;-51
2023/10/30 16:04:29;;;;;;;0.00;0.00;;;;;;;14.81;67.78;99796.75;15724021;28;20036;-53
2023/10/30 16:12:04;;;;;;;;;;;;;;;14.66;68.22;99783.97;15728345;28;20048;-51
2023/10/30 16:19:38;;;;;;;0.00;0.00;;;;;;;14.80;68.14;99779.75;15732799;28;19920;-52
2023/10/30 16:27:13;;;;;;;0.00;0.00;;;;;;;14.58;68.48;99770.94;15730820;28;20049;-52
2023/10/30 16:34:47;;;;;;;0.00;0.00;;;;;;;14.55;68.80;99755.28;15728512;28;20045;-50
2023/10/30 16:42:22;;;;;;;0.00;0.00;;;;;;;14.44;69.89;99732.75;15727597;28;20038;-49
2023/10/30 16:49:55;;;;;;;0.25;0.22;;;;;;;14.54;69.24;99711.25;15731182;28;20049;-51
2023/10/30 16:57:30;;;;;;;0.00;0.00;;;;;;;14.64;68.37;99712.38;15738755;28;20060;-52
2023/10/30 17:05:04;;;;;;;0.35;0.20;;;;;;;14.78;68.07;99716.22;15745977;28;20048;-50
2023/10/30 17:12:39;;;;;;;0.77;0.08;;;;;;;14.30;69.64;99710.00;15747196;28;20046;-53
2023/10/30 17:20:12;;;;;;;0.10;0.10;;;;;;;14.37;69.69;99685.47;15718199;23;20425;-59
2023/10/30 17:27:47;;;;;;;0.00;0.00;;;;;;;14.37;68.75;99702.50;15670886;28;20047;-58
2023/10/30 17:35:20;;;;;;;0.80;0.35;;;;;;;13.66;71.68;99694.69;15732221;28;20118;-57
2023/10/30 17:42:55;;;;;;;0.10;0.10;;;;;;;14.11;70.09;99693.41;15728996;28;20154;-60
2023/10/30 17:50:29;;;;;;;0.00;0.00;;;;;;;13.43;72.48;99671.53;15673321;28;20121;-59
2023/10/30 17:58:05;;;;;;;0.40;0.10;;;;;;;13.22;73.56;99659.72;15731691;28;20076;-59
2023/10/30 18:05:39;;;;;;;0.50;0.50;;;;;;;13.21;74.06;99655.38;15713714;28;20152;-60
2023/10/30 18:13:15;;;;;;;0.13;0.13;;;;;;;13.53;72.69;99649.25;15688154;28;20625;-60
2023/10/30 18:20:48;;;;;;;0.75;0.75;;;;;;;12.66;76.13;99624.06;15692887;28;20202;-59
2023/10/30 18:28:23;;;;;;;0.22;0.22;;;;;;;12.57;76.75;99620.19;15719464;28;20493;-59
2023/10/30 18:35:56;;;;;;;0.00;0.00;;;;;;;13.11;74.21;99596.00;15724301;28;20096;-60
2023/10/30 18:43:33;;;;;;;0.00;0.00;;;;;;;12.55;76.34;99568.50;15719878;28;20479;-57
2023/10/30 18:51:06;;;;;;;0.00;0.00;;;;;;;12.68;75.35;99562.72;15709245;28;20131;-58
2023/10/30 18:58:40;;;;;;;0.20;0.20;;;;;;;13.09;73.65;99563.13;15724854;28;20044;-59
2023/10/30 19:06:14;;;;;;;0.00;0.00;;;;;;;12.74;74.96;99564.41;15712315;28;20123;-60
2023/10/30 19:13:50;;;;;;;0.00;0.00;;;;;;;13.10;73.81;99540.47;15707941;28;20557;-57
2023/10/30 19:21:24;;;;;;;0.00;0.00;;;;;;;13.75;70.92;99536.69;15712163;28;20186;-56
2023/10/30 19:28:59;;;;;;;0.00;0.00;;;;;;;12.72;74.75;99528.81;15719639;28;20048;-60
2023/10/30 19:36:32;;;;;;;0.00;0.00;;;;;;;13.04;73.45;99522.66;15721345;28;20131;-60
2023/10/30 19:44:07;;;;;;;;;;;;;;;13.14;72.74;99514.66;15707943;28;20074;-57
2023/10/30 19:51:42;;;;;;;0.00;0.00;;;;;;;12.54;74.72;99504.13;15722962;28;19985;-56
2023/10/30 19:59:16;;;;;;;2.28;0.75;;;;;;;12.75;74.03;99495.19;15717567;28;20473;-58
2023/10/30 20:06:49;;;;;;;0.00;0.00;;;;;;;12.81;73.71;99504.94;15717369;28;20105;-59
2023/10/30 20:14:24;;;;;;;0.32;0.32;;;;;;;12.58;74.93;99495.28;15697916;28;20072;-59
2023/10/30 20:21:57;;;;;;;0.00;0.00;;;;;;;13.26;72.82;99496.47;15713874;28;20139;-57
2023/10/30 20:29:32;;;;;;;0.20;0.20;;;;;;;12.50;75.00;99487.69;15709729;28;20052;-58
2023/10/30 20:37:07;;;;;;;1.13;1.02;;;;;;;12.44;75.55;99449.13;15704681;28;20049;-58
2023/10/30 20:44:42;;;;;;;0.00;0.00;;;;;;;12.67;74.64;99445.31;15720318;28;20382;-61
2023/10/30 20:52:17;;;;;;;0.10;0.10;;;;;;;12.33;76.03;99409.75;15708888;28;20041;-58
2023/10/30 20:59:51;;;;;;;;;;;;;;;12.72;74.76;99355.69;15713610;28;20215;-60
2023/10/30 21:07:25;;;;;;;0.30;0.30;;;;;;;12.35;75.32;99380.69;15705054;28;20408;-57
2023/10/30 21:15:00;;;;;;;0.00;0.00;;;;;;;12.68;74.41;99376.13;15716210;28;20076;-61
2023/10/30 21:22:34;;;;;;;0.60;0.52;;;;;;;12.16;76.88;99350.66;15684611;28;20037;-58
2023/10/30 21:30:10;;;;;;;0.20;0.20;;;;;;;12.04;77.46;99339.25;15709553;28;20184;-61
2023/10/30 21:37:43;;;;;;;0.30;0.30;;;;;;;12.52;75.82;99334.81;15692032;28;20278;-57
2023/10/30 21:45:18;;;;;;;0.43;0.43;;;;;;;12.77;74.76;99316.16;15725256;28;20113;-59
2023/10/30 21:52:51;;;;;;;0.00;0.00;;;;;;;12.72;74.89;99347.63;15701507;28;20060;-58
2023/10/30 22:00:26;;;;;;;0.13;0.10;;;;;;;13.25;72.70;99326.97;15717654;28;20040;-56
2023/10/30 22:08:00;;;;;;;0.43;0.15;;;;;;;13.25;72.27;99317.00;15718756;28;20458;-56
2023/10/30 22:15:39;;;;;;;1.00;0.32;;;;;;;13.25;72.60;99317.00;15711317;28;20037;-55
2023/10/30 22:23:12;;;;;;;0.90;0.85;;;;;;;13.07;72.84;99322.00;15727266;28;20045;-52
2023/10/30 22:30:47;;;;;;;0.55;0.35;;;;;;;12.85;74.74;99258.31;15701348;28;20154;-57
2023/10/30 22:38:20;;;;;;;0.00;0.00;;;;;;;12.66;75.04;99224.84;15711796;28;20079;-54
2023/10/30 22:45:55;;;;;;;4.57;1.38;;;;;;;13.05;73.36;99203.72;15692346;28;20045;-54
2023/10/30 22:53:28;;;;;;;0.10;0.10;;;;;;;13.15;72.58;99193.00;15709961;28;20041;-49
2023/10/30 23:01:03;;;;;;;0.55;0.52;;;;;;;13.42;71.96;99184.72;15712271;28;20037;-54
2023/10/30 23:08:36;;;;;;;0.03;0.03;;;;;;;12.26;76.49;99183.13;15723769;28;20462;-59
2023/10/30 23:16:32;;;;;;;0.80;0.80;;;;;;;12.05;77.59;99182.19;15711506;28;20097;-63
2023/10/30 23:24:06;;;;;;;10.50;1.00;;;;;;;12.46;75.84;99177.91;15627507;28;20236;-49
2023/10/30 23:31:41;;;;;;;0.00;0.00;;;;;;;12.30;76.41;99153.84;15657572;28;20049;-50
2023/10/30 23:39:14;;;;;;;0.45;0.38;;;;;;;11.77;78.77;99121.47;15663253;28;20497;-50
2023/10/30 23:46:52;;;;;;;0.00;0.00;;;;;;;11.99;77.66;99114.13;15648736;28;20052;-49
2023/10/30 23:54:25;;;;;;;0.20;0.20;;;;;;;12.63;75.46;99118.47;15660816;28;20124;-53
